Time;durP1;ratioP1;P1;durP2;ratioP2;P2;SDS_P1;SDS_P2;PMS_P1;PMS_P2;Temp;Humidity;BMP_temperature;BMP_pressure;BME280_temperature;BME280_humidity;BME280_pressure;Samples;Min_cycle;Max_cycle;Signal;HPM_P1;HPM_P2
2021/03/09 00:00:35;;;;;;;141.20;85.53;;;17.60;57.60;;;;;;5053503;28;20025;-59
2021/03/09 00:03:00;;;;;;;136.40;82.13;;;17.50;57.80;;;;;;5053604;28;20039;-59
2021/03/09 00:05:26;;;;;;;137.60;83.07;;;17.50;57.70;;;;;;5051491;28;20032;-60
2021/03/09 00:07:52;;;;;;;137.98;83.13;;;17.50;57.80;;;;;;5051072;28;20060;-59
2021/03/09 00:10:17;;;;;;;135.68;81.57;;;17.50;57.70;;;;;;5051020;28;20017;-59
2021/03/09 00:12:43;;;;;;;131.73;79.00;;;17.50;57.70;;;;;;5051230;28;20120;-60
2021/03/09 00:15:09;;;;;;;136.23;77.70;;;17.40;57.90;;;;;;5050895;28;20025;-60
2021/03/09 00:17:35;;;;;;;130.73;80.28;;;17.40;57.80;;;;;;5051022;28;20029;-62
2021/03/09 00:20:02;;;;;;;123.82;74.28;;;17.50;57.80;;;;;;5052118;28;20078;-60
2021/03/09 00:22:27;;;;;;;129.80;76.88;;;17.40;57.80;;;;;;5053203;28;20040;-60
2021/03/09 00:24:53;;;;;;;129.68;76.05;;;17.40;57.80;;;;;;5052973;28;20033;-61
2021/03/09 00:27:19;;;;;;;121.13;74.55;;;17.30;58.20;;;;;;5053725;28;20045;-60
2021/03/09 00:29:45;;;;;;;119.18;71.60;;;17.40;58.10;;;;;;5057349;28;20025;-60
2021/03/09 00:32:10;;;;;;;126.63;76.63;;;17.50;58.30;;;;;;5057199;28;20033;-60
2021/03/09 00:34:36;;;;;;;116.00;72.90;;;17.40;57.50;;;;;;5057307;28;20108;-60
2021/03/09 00:37:03;;;;;;;117.10;70.57;;;17.50;57.50;;;;;;5057149;28;20092;-60
2021/03/09 00:39:29;;;;;;;106.88;69.63;;;17.50;57.40;;;;;;5056976;28;20025;-61
2021/03/09 00:41:54;;;;;;;120.72;70.32;;;17.50;57.60;;;;;;5056871;28;20409;-61
2021/03/09 00:44:20;;;;;;;107.80;67.10;;;17.40;57.50;;;;;;5056925;28;20025;-60
2021/03/09 00:46:48;;;;;;;111.85;67.95;;;17.40;57.60;;;;;;5056875;28;20525;-60
2021/03/09 00:49:13;;;;;;;109.47;66.32;;;17.40;57.50;;;;;;5056818;28;20156;-60
2021/03/09 00:51:39;;;;;;;117.03;70.30;;;17.40;57.50;;;;;;5056603;28;20372;-60
2021/03/09 00:54:05;;;;;;;111.78;67.53;;;17.30;57.50;;;;;;5056693;28;20033;-60
2021/03/09 00:56:30;;;;;;;112.15;67.28;;;17.30;57.60;;;;;;5056655;28;20057;-60
2021/03/09 00:58:56;;;;;;;106.47;64.50;;;17.20;57.60;;;;;;5056701;28;20067;-60
2021/03/09 01:01:21;;;;;;;113.75;67.68;;;17.20;58.20;;;;;;5056401;28;20086;-60
2021/03/09 01:03:47;;;;;;;109.60;67.78;;;17.20;57.80;;;;;;5056727;28;20112;-59
2021/03/09 01:06:13;;;;;;;109.55;64.40;;;17.20;58.00;;;;;;5056469;28;20449;-60
2021/03/09 01:08:38;;;;;;;106.60;63.38;;;17.20;58.40;;;;;;5056416;28;20032;-60
2021/03/09 01:11:04;;;;;;;106.15;64.85;;;17.10;58.30;;;;;;5056661;28;20021;-60
2021/03/09 01:13:29;;;;;;;105.68;63.25;;;17.10;58.40;;;;;;5056259;28;20033;-60
2021/03/09 01:15:55;;;;;;;101.43;60.55;;;17.10;58.60;;;;;;5056038;28;20029;-60
2021/03/09 01:18:21;;;;;;;96.57;60.13;;;17.10;59.00;;;;;;5056378;28;20033;-59
2021/03/09 01:20:47;;;;;;;97.72;59.78;;;17.00;58.70;;;;;;5056275;28;20433;-60
2021/03/09 01:23:14;;;;;;;110.07;63.20;;;17.00;58.30;;;;;;5056008;28;20043;-60
2021/03/09 01:25:40;;;;;;;98.68;61.53;;;17.10;58.40;;;;;;5056033;28;20053;-60
2021/03/09 01:28:06;;;;;;;96.68;57.47;;;17.10;58.40;;;;;;5056083;28;20024;-60
2021/03/09 01:30:32;;;;;;;92.47;55.10;;;17.10;58.20;;;;;;5055913;28;20107;-60
2021/03/09 01:32:58;;;;;;;88.25;56.78;;;17.40;57.80;;;;;;5055858;28;20457;-60
2021/03/09 01:35:23;;;;;;;89.82;56.03;;;17.60;57.30;;;;;;5055783;28;20037;-60
2021/03/09 01:37:49;;;;;;;91.72;54.13;;;17.80;56.80;;;;;;5055849;28;20025;-60
2021/03/09 01:40:15;;;;;;;93.38;56.58;;;18.00;56.20;;;;;;5054729;28;20108;-59
2021/03/09 01:42:40;;;;;;;89.30;52.50;;;18.20;55.70;;;;;;5055834;28;20116;-60
2021/03/09 01:45:07;;;;;;;91.53;56.78;;;18.20;55.80;;;;;;5055894;28;20056;-60
2021/03/09 01:47:39;;;;;;;82.63;52.08;;;18.20;55.90;;;;;;5055487;28;20036;-60
2021/03/09 01:50:05;;;;;;;91.60;54.30;;;18.10;56.00;;;;;;5055690;28;20473;-60
2021/03/09 01:52:31;;;;;;;85.15;51.72;;;18.20;56.10;;;;;;5055503;28;20032;-60
2021/03/09 01:54:57;;;;;;;83.15;51.65;;;18.10;56.10;;;;;;5055794;28;20033;-60
2021/03/09 01:57:22;;;;;;;77.68;50.08;;;18.10;56.30;;;;;;5055546;28;20052;-60
2021/03/09 01:59:50;;;;;;;77.90;50.63;;;18.10;56.30;;;;;;5055291;28;20473;-60
2021/03/09 02:02:15;;;;;;;86.32;48.28;;;18.10;56.30;;;;;;5054158;28;20033;-60
2021/03/09 02:04:41;;;;;;;76.65;47.20;;;18.10;56.40;;;;;;5055330;28;20025;-60
2021/03/09 02:07:07;;;;;;;78.20;48.65;;;18.00;56.40;;;;;;5055658;28;20031;-60
2021/03/09 02:09:33;;;;;;;81.25;50.42;;;18.00;56.60;;;;;;5055087;28;20032;-60
2021/03/09 02:12:10;;;;;;;78.30;47.40;;;18.00;56.60;;;;;;5055281;28;20036;-60
2021/03/09 02:15:09;;;;;;;81.32;48.33;;;18.00;56.80;;;;;;5055239;28;20033;-60
2021/03/09 02:17:48;;;;;;;77.93;47.30;;;17.90;56.80;;;;;;5054923;28;20534;-60
2021/03/09 02:20:51;;;;;;;73.18;46.28;;;17.90;57.00;;;;;;5055320;28;20029;-60
2021/03/09 02:23:50;;;;;;;79.68;48.03;;;17.90;56.90;;;;;;5054876;28;20546;-61
2021/03/09 02:26:55;;;;;;;70.22;43.47;;;17.90;57.00;;;;;;5054745;28;20056;-60
2021/03/09 02:30:05;;;;;;;71.43;42.95;;;17.80;57.10;;;;;;5054986;28;20465;-60
2021/03/09 02:32:37;;;;;;;73.17;45.27;;;17.80;57.10;;;;;;5041392;28;20076;-60
2021/03/09 02:35:04;;;;;;;74.57;42.30;;;17.80;57.00;;;;;;5055133;28;20037;-60
2021/03/09 02:37:36;;;;;;;70.43;43.95;;;17.90;57.00;;;;;;5054732;28;20029;-60
2021/03/09 02:40:06;;;;;;;68.93;42.67;;;18.00;56.70;;;;;;5054674;28;20029;-60
2021/03/09 02:42:35;;;;;;;68.85;41.90;;;18.00;56.50;;;;;;5054689;28;20029;-60
2021/03/09 02:45:01;;;;;;;66.00;42.13;;;18.10;56.40;;;;;;5054806;28;20029;-60
2021/03/09 02:47:31;;;;;;;66.22;42.70;;;18.10;56.40;;;;;;5054384;28;20400;-60
2021/03/09 02:49:59;;;;;;;61.78;40.78;;;18.00;56.50;;;;;;5054311;28;20056;-60
2021/03/09 02:52:26;;;;;;;68.57;43.15;;;18.00;56.90;;;;;;5054210;28;20029;-60
2021/03/09 02:54:53;;;;;;;66.78;42.65;;;17.90;56.80;;;;;;5054127;28;20033;-60
2021/03/09 02:57:21;;;;;;;63.28;39.22;;;17.90;56.90;;;;;;5054791;28;20033;-60
2021/03/09 02:59:48;;;;;;;64.20;41.38;;;17.80;57.00;;;;;;5054391;28;20033;-60
2021/03/09 03:02:17;;;;;;;61.13;40.70;;;17.80;57.10;;;;;;5054389;28;20484;-60
2021/03/09 03:04:46;;;;;;;63.72;38.60;;;17.70;57.20;;;;;;5054424;28;20032;-60
2021/03/09 03:07:12;;;;;;;58.83;39.08;;;17.70;57.30;;;;;;5054192;28;20028;-60
2021/03/09 03:09:39;;;;;;;63.10;39.80;;;17.60;57.40;;;;;;5054211;28;20021;-60
2021/03/09 03:12:07;;;;;;;62.72;39.08;;;17.60;57.40;;;;;;5054147;28;20036;-60
2021/03/09 03:14:36;;;;;;;62.10;38.85;;;17.60;57.50;;;;;;5054244;28;20118;-60
2021/03/09 03:17:03;;;;;;;58.40;37.75;;;17.60;57.50;;;;;;5054071;28;20032;-60
2021/03/09 03:19:32;;;;;;;60.63;37.88;;;17.50;57.60;;;;;;5053998;28;20170;-60
2021/03/09 03:21:59;;;;;;;61.08;37.35;;;17.50;57.60;;;;;;5053992;28;20427;-60
2021/03/09 03:24:26;;;;;;;61.10;39.15;;;17.50;57.70;;;;;;5053942;28;20082;-60
2021/03/09 03:26:53;;;;;;;59.63;36.33;;;17.50;57.60;;;;;;5053751;28;20131;-60
2021/03/09 03:29:20;;;;;;;59.45;36.63;;;17.40;57.70;;;;;;5054118;28;20048;-60
2021/03/09 03:31:48;;;;;;;57.78;35.47;;;17.50;57.80;;;;;;5053733;28;20033;-60
2021/03/09 03:34:14;;;;;;;52.88;34.72;;;17.40;57.80;;;;;;5053743;28;20053;-60
2021/03/09 03:36:40;;;;;;;58.13;35.63;;;17.50;57.80;;;;;;5053499;28;20529;-60
2021/03/09 03:39:07;;;;;;;55.20;34.88;;;17.40;58.20;;;;;;5053637;28;20053;-60
2021/03/09 03:41:33;;;;;;;52.83;34.58;;;17.50;57.80;;;;;;5053852;28;20037;-60
2021/03/09 03:43:59;;;;;;;56.20;35.53;;;17.50;57.60;;;;;;5053677;28;20032;-60
2021/03/09 03:46:25;;;;;;;57.55;34.22;;;17.50;57.50;;;;;;5053673;28;20032;-60
2021/03/09 03:48:51;;;;;;;51.63;33.33;;;17.60;57.50;;;;;;5053604;28;20032;-60
2021/03/09 03:51:17;;;;;;;55.33;33.45;;;17.60;57.40;;;;;;5053632;28;20021;-60
2021/03/09 03:53:42;;;;;;;55.45;35.60;;;17.60;57.40;;;;;;5053400;28;20029;-60
2021/03/09 03:56:19;;;;;;;53.10;34.45;;;17.60;57.50;;;;;;5053834;28;20075;-60
2021/03/09 03:58:48;;;;;;;52.85;33.10;;;17.60;57.30;;;;;;5053679;28;20021;-60
2021/03/09 04:01:18;;;;;;;53.85;33.13;;;17.60;57.10;;;;;;5053480;28;20036;-60
2021/03/09 04:03:45;;;;;;;49.90;32.87;;;17.50;57.30;;;;;;5056966;28;20029;-60
2021/03/09 04:06:12;;;;;;;51.70;33.75;;;17.50;57.30;;;;;;5057757;28;20728;-60
2021/03/09 04:08:39;;;;;;;49.67;33.13;;;17.50;57.60;;;;;;5057548;28;20428;-60
2021/03/09 04:11:06;;;;;;;48.88;32.40;;;17.40;57.50;;;;;;5057298;28;20496;-60
2021/03/09 04:13:34;;;;;;;49.55;32.92;;;17.40;57.60;;;;;;5057440;28;20037;-60
2021/03/09 04:16:01;;;;;;;47.67;30.25;;;17.40;57.70;;;;;;5057397;28;20029;-60
2021/03/09 04:18:28;;;;;;;48.22;31.50;;;17.40;57.80;;;;;;5057395;28;20029;-60
2021/03/09 04:20:56;;;;;;;48.38;31.13;;;17.30;57.80;;;;;;5057364;28;20040;-60
2021/03/09 04:23:22;;;;;;;47.42;30.73;;;17.30;57.90;;;;;;5057137;28;20112;-60
2021/03/09 04:25:48;;;;;;;50.45;31.52;;;17.30;58.00;;;;;;5057214;28;20166;-60
2021/03/09 04:28:15;;;;;;;48.83;32.97;;;17.30;58.10;;;;;;5057166;28;20033;-60
2021/03/09 04:30:41;;;;;;;45.40;31.63;;;17.20;58.10;;;;;;5057681;28;20036;-60
2021/03/09 04:33:08;;;;;;;50.45;32.50;;;17.20;58.20;;;;;;5057028;28;20065;-60
2021/03/09 04:35:36;;;;;;;44.65;28.70;;;17.20;58.30;;;;;;5057082;28;20048;-60
2021/03/09 04:38:02;;;;;;;47.88;30.75;;;17.20;58.30;;;;;;5057238;28;20108;-60
2021/03/09 04:40:29;;;;;;;41.85;28.42;;;17.20;58.30;;;;;;5057122;28;20029;-60
2021/03/09 04:42:55;;;;;;;45.75;29.92;;;17.10;58.30;;;;;;5056904;28;20036;-60
2021/03/09 04:45:20;;;;;;;43.50;28.92;;;17.10;58.30;;;;;;5056902;28;20021;-60
2021/03/09 04:47:47;;;;;;;44.00;28.42;;;17.10;58.50;;;;;;5056523;28;20033;-60
2021/03/09 04:50:15;;;;;;;44.63;30.98;;;17.20;58.40;;;;;;5056806;28;20025;-60
2021/03/09 04:52:45;;;;;;;42.13;27.80;;;17.30;58.20;;;;;;5056810;28;20074;-60
2021/03/09 04:55:13;;;;;;;41.22;27.73;;;17.50;57.70;;;;;;5056775;28;20033;-60
2021/03/09 04:57:42;;;;;;;45.53;26.10;;;17.70;57.20;;;;;;5056678;28;20071;-60
2021/03/09 05:00:10;;;;;;;41.60;27.30;;;17.90;56.60;;;;;;5056564;28;20475;-60
2021/03/09 05:02:36;;;;;;;42.28;27.23;;;17.90;56.60;;;;;;5056502;28;20124;-60
2021/03/09 05:05:02;;;;;;;42.20;26.80;;;18.00;56.60;;;;;;5056400;28;20130;-60
2021/03/09 05:07:28;;;;;;;39.55;26.00;;;18.10;56.60;;;;;;5056150;28;20480;-60
2021/03/09 05:09:53;;;;;;;36.65;25.05;;;18.10;56.30;;;;;;5056403;28;20064;-60
2021/03/09 05:12:19;;;;;;;43.53;26.15;;;18.20;56.20;;;;;;5056217;28;20060;-60
2021/03/09 05:14:45;;;;;;;35.72;24.63;;;18.40;55.90;;;;;;5054936;28;20111;-60
2021/03/09 05:17:11;;;;;;;36.20;23.98;;;18.40;55.70;;;;;;5056204;28;20029;-60
2021/03/09 05:19:36;;;;;;;37.40;25.77;;;18.50;55.60;;;;;;5056406;28;20025;-60
2021/03/09 05:22:02;;;;;;;35.83;23.98;;;18.60;55.30;;;;;;5056245;28;20416;-60
2021/03/09 05:24:28;;;;;;;38.63;24.40;;;18.70;55.10;;;;;;5055904;28;20028;-60
2021/03/09 05:26:54;;;;;;;36.97;23.95;;;18.80;55.00;;;;;;5055779;28;20128;-60
2021/03/09 05:29:20;;;;;;;42.28;25.17;;;18.90;54.70;;;;;;5056098;28;20028;-60
2021/03/09 05:31:46;;;;;;;34.83;23.50;;;19.00;54.50;;;;;;5055992;28;20427;-60
2021/03/09 05:34:11;;;;;;;36.58;23.58;;;19.10;55.00;;;;;;5055754;28;20439;-60
2021/03/09 05:36:37;;;;;;;35.65;24.00;;;19.10;54.30;;;;;;5056001;28;20025;-60
2021/03/09 05:39:03;;;;;;;31.20;21.35;;;19.20;54.20;;;;;;5055622;28;20096;-60
2021/03/09 05:41:29;;;;;;;37.10;24.00;;;19.30;53.90;;;;;;5056435;28;20029;-60
2021/03/09 05:43:54;;;;;;;36.97;23.20;;;19.40;53.80;;;;;;5055666;28;20083;-60
2021/03/09 05:46:20;;;;;;;35.22;21.92;;;19.40;53.60;;;;;;5056112;28;20064;-60
2021/03/09 05:48:46;;;;;;;35.35;21.90;;;19.40;53.60;;;;;;5055716;28;20028;-60
2021/03/09 05:51:12;;;;;;;32.05;20.58;;;19.50;53.60;;;;;;5055702;28;20037;-60
2021/03/09 05:53:37;;;;;;;33.10;22.55;;;19.40;53.80;;;;;;5055505;28;20032;-60
2021/03/09 05:56:04;;;;;;;38.60;24.25;;;19.40;53.90;;;;;;5055623;28;20493;-60
2021/03/09 05:58:30;;;;;;;33.00;21.42;;;19.40;54.40;;;;;;5055500;28;20036;-60
2021/03/09 06:00:56;;;;;;;32.25;22.52;;;19.30;54.30;;;;;;5055528;28;20414;-59
2021/03/09 06:03:25;;;;;;;32.85;21.67;;;19.40;54.10;;;;;;5055639;28;20064;-60
2021/03/09 06:05:51;;;;;;;31.05;20.90;;;19.40;54.10;;;;;;5055398;28;20025;-59
2021/03/09 06:08:17;;;;;;;31.05;21.42;;;19.40;54.00;;;;;;5055802;28;20048;-59
2021/03/09 06:10:42;;;;;;;27.60;19.33;;;19.40;53.90;;;;;;5055290;28;20025;-60
2021/03/09 06:13:08;;;;;;;28.55;20.42;;;19.40;54.00;;;;;;5055556;28;20124;-60
2021/03/09 06:15:52;;;;;;;31.08;20.23;;;19.40;54.10;;;;;;5055332;28;20055;-59
2021/03/09 06:18:24;;;;;;;30.45;20.58;;;19.30;54.20;;;;;;5054914;28;20112;-60
2021/03/09 06:20:49;;;;;;;31.17;20.15;;;19.20;54.40;;;;;;5054718;28;20025;-60
2021/03/09 06:23:26;;;;;;;27.40;19.63;;;19.20;54.50;;;;;;5054791;28;20074;-60
2021/03/09 06:25:52;;;;;;;28.90;20.25;;;19.10;54.60;;;;;;5054440;28;20476;-60
2021/03/09 06:28:32;;;;;;;31.27;19.52;;;19.10;55.30;;;;;;5054677;28;20029;-60
2021/03/09 06:31:11;;;;;;;29.17;18.47;;;19.00;54.80;;;;;;5054726;28;20037;-60
2021/03/09 06:33:37;;;;;;;30.48;18.77;;;19.00;54.90;;;;;;5055244;28;20326;-60
2021/03/09 06:36:10;;;;;;;29.38;19.35;;;18.90;54.90;;;;;;5054797;28;20441;-60
2021/03/09 06:38:37;;;;;;;28.88;18.67;;;18.90;55.10;;;;;;5055063;28;20037;-60
2021/03/09 06:41:16;;;;;;;27.83;18.60;;;18.90;55.10;;;;;;5054833;28;20381;-60
2021/03/09 06:43:45;;;;;;;27.20;19.08;;;18.90;55.20;;;;;;5054911;28;20057;-60
2021/03/09 06:46:21;;;;;;;24.90;18.73;;;18.80;55.40;;;;;;5054830;28;20032;-60
2021/03/09 06:48:50;;;;;;;27.42;18.77;;;18.70;55.30;;;;;;5054368;28;20031;-60
2021/03/09 06:51:31;;;;;;;28.00;19.20;;;18.80;55.40;;;;;;5054436;28;20083;-59
2021/03/09 06:54:02;;;;;;;27.45;18.38;;;18.70;55.50;;;;;;5054391;28;20029;-61
2021/03/09 06:56:28;;;;;;;28.55;19.05;;;18.60;56.40;;;;;;5055135;28;20029;-60
2021/03/09 06:58:54;;;;;;;29.17;19.30;;;18.80;56.10;;;;;;5054550;28;20029;-60
2021/03/09 07:01:20;;;;;;;27.70;18.80;;;19.00;55.80;;;;;;5054196;28;20025;-60
2021/03/09 07:03:46;;;;;;;29.08;18.25;;;19.00;55.80;;;;;;5054233;28;20036;-58
2021/03/09 07:06:11;;;;;;;30.58;19.20;;;19.00;55.80;;;;;;5054179;28;20029;-59
2021/03/09 07:08:37;;;;;;;32.53;18.92;;;19.00;55.80;;;;;;5052955;28;20021;-60
2021/03/09 07:11:03;;;;;;;31.38;18.35;;;18.90;55.80;;;;;;5053931;28;20449;-59
2021/03/09 07:13:29;;;;;;;31.52;20.75;;;18.80;55.50;;;;;;5053870;28;20047;-60
2021/03/09 07:15:56;;;;;;;29.73;19.20;;;18.70;55.60;;;;;;5053935;28;20029;-61
2021/03/09 07:18:27;;;;;;;33.70;20.15;;;18.60;55.60;;;;;;5054029;28;20350;-60
2021/03/09 07:20:54;;;;;;;33.80;20.40;;;18.60;55.80;;;;;;5053723;28;20024;-60
2021/03/09 07:23:21;;;;;;;150.13;92.03;;;18.50;55.50;;;;;;5054066;28;20028;-60
2021/03/09 07:26:00;;;;;;;188.43;109.63;;;18.50;55.50;;;;;;5053792;28;20057;-59
2021/03/09 07:28:49;;;;;;;176.23;103.63;;;18.50;55.20;;;;;;5053690;28;20029;-60
2021/03/09 07:31:22;;;;;;;141.65;86.32;;;18.50;54.20;;;;;;5053785;28;20025;-60
2021/03/09 07:33:48;;;;;;;140.52;92.05;;;18.50;53.80;;;;;;5056051;28;20037;-61
2021/03/09 07:36:14;;;;;;;89.55;58.03;;;18.40;53.20;;;;;;5056713;28;20107;-67
2021/03/09 07:38:42;;;;;;;67.15;44.90;;;18.30;52.60;;;;;;5052964;28;20442;-61
2021/03/09 07:41:09;;;;;;;51.55;35.72;;;18.30;51.80;;;;;;5053736;28;20021;-60
2021/03/09 07:43:37;;;;;;;45.90;31.80;;;18.30;51.30;;;;;;5053535;28;20040;-62
2021/03/09 07:46:07;;;;;;;43.72;30.70;;;18.30;51.90;;;;;;5053607;28;20082;-62
2021/03/09 07:48:33;;;;;;;37.33;26.25;;;18.30;52.10;;;;;;5053521;28;20025;-63
2021/03/09 07:51:04;;;;;;;38.42;27.33;;;18.30;52.90;;;;;;5053640;28;20055;-61
2021/03/09 07:53:30;;;;;;;37.55;28.17;;;18.30;52.50;;;;;;5053599;28;20028;-61
2021/03/09 07:56:07;;;;;;;37.35;27.70;;;18.30;52.10;;;;;;5053607;28;20461;-65
2021/03/09 07:58:33;;;;;;;35.40;26.45;;;18.50;51.30;;;;;;5053224;28;20112;-65
2021/03/09 08:01:00;;;;;;;31.67;24.40;;;18.60;50.90;;;;;;5053497;28;20103;-60
2021/03/09 08:03:30;;;;;;;33.97;24.60;;;18.70;50.30;;;;;;5054124;28;20048;-61
2021/03/09 08:06:03;;;;;;;38.25;28.52;;;18.70;50.60;;;;;;5053521;28;20025;-61
2021/03/09 08:08:41;;;;;;;32.75;24.50;;;18.70;50.60;;;;;;5053317;28;20033;-61
2021/03/09 08:11:28;;;;;;;34.83;24.75;;;18.60;50.80;;;;;;5053900;28;20029;-61
2021/03/09 08:13:56;;;;;;;33.53;25.17;;;18.60;50.40;;;;;;5052341;28;20041;-61
2021/03/09 08:16:24;;;;;;;35.47;25.80;;;18.60;50.40;;;;;;5053417;28;20028;-59
2021/03/09 08:19:13;;;;;;;39.78;26.50;;;18.50;50.20;;;;;;5051954;28;20460;-64
2021/03/09 08:21:50;;;;;;;45.42;24.02;;;18.40;50.40;;;;;;5053631;28;20057;-62
2021/03/09 08:24:40;;;;;;;40.22;24.75;;;18.40;51.00;;;;;;5053110;28;20469;-62
2021/03/09 08:27:29;;;;;;;38.45;24.40;;;18.50;51.70;;;;;;5051710;28;20433;-62
2021/03/09 08:30:23;;;;;;;38.97;22.63;;;18.50;52.30;;;;;;5051181;28;20037;-62
2021/03/09 08:32:49;;;;;;;38.88;22.70;;;18.60;52.60;;;;;;5051385;28;20032;-62
2021/03/09 08:35:15;;;;;;;31.02;20.52;;;18.50;53.00;;;;;;5051555;28;20029;-62
2021/03/09 08:37:46;;;;;;;32.17;20.70;;;18.50;53.20;;;;;;5051508;28;20035;-62
2021/03/09 08:40:15;;;;;;;30.17;22.13;;;18.50;53.60;;;;;;5051527;28;20075;-62
2021/03/09 08:43:02;;;;;;;33.72;21.92;;;18.50;53.70;;;;;;5051544;28;20033;-62
2021/03/09 08:45:32;;;;;;;29.60;20.73;;;18.50;54.00;;;;;;5052699;28;20086;-62
2021/03/09 08:47:58;;;;;;;33.23;20.77;;;18.40;54.10;;;;;;5053256;28;20029;-62
2021/03/09 08:50:41;;;;;;;31.83;20.33;;;18.50;54.30;;;;;;5056823;28;20033;-62
2021/03/09 08:53:31;;;;;;;33.97;20.48;;;18.40;54.40;;;;;;5056721;28;20457;-62
2021/03/09 08:55:58;;;;;;;32.33;22.13;;;18.40;54.60;;;;;;5056779;28;20029;-62
2021/03/09 08:58:24;;;;;;;33.50;21.10;;;18.40;54.70;;;;;;5056598;28;20036;-61
2021/03/09 09:00:50;;;;;;;29.17;19.98;;;18.40;54.60;;;;;;5056529;28;20025;-62
2021/03/09 09:03:32;;;;;;;32.22;21.15;;;18.50;54.50;;;;;;5056643;28;20025;-62
2021/03/09 09:05:57;;;;;;;28.92;19.58;;;18.60;54.30;;;;;;5056845;28;20036;-62
2021/03/09 09:08:23;;;;;;;27.30;19.20;;;18.60;54.10;;;;;;5056533;28;20115;-61
2021/03/09 09:10:49;;;;;;;27.35;20.10;;;18.60;54.10;;;;;;5056507;28;20024;-61
2021/03/09 09:13:14;;;;;;;27.42;19.75;;;18.60;54.10;;;;;;5056197;28;20037;-62
2021/03/09 09:15:40;;;;;;;25.55;18.50;;;18.50;54.30;;;;;;5056844;28;20025;-61
2021/03/09 09:18:09;;;;;;;24.23;17.33;;;18.50;54.60;;;;;;5056533;28;20025;-61
2021/03/09 09:20:46;;;;;;;28.58;18.58;;;18.40;54.80;;;;;;5056232;28;20159;-61
2021/03/09 09:23:27;;;;;;;31.75;20.05;;;18.30;54.90;;;;;;5056234;28;20044;-61
2021/03/09 09:26:00;;;;;;;;;;;18.30;55.00;;;;;;5056371;28;20045;-61
2021/03/09 09:28:38;;;;;;;30.92;18.15;;;18.20;55.20;;;;;;5055166;28;19916;-63
2021/03/09 09:31:22;;;;;;;25.15;17.55;;;18.20;55.30;;;;;;5056340;28;20094;-61
2021/03/09 09:33:53;;;;;;;25.95;17.58;;;18.10;55.30;;;;;;5056155;28;20032;-61
2021/03/09 09:36:20;;;;;;;24.13;16.92;;;18.10;55.50;;;;;;5055690;28;20033;-62
2021/03/09 09:38:54;;;;;;;24.30;16.48;;;18.00;55.50;;;;;;5056086;28;20033;-62
2021/03/09 09:41:21;;;;;;;24.60;16.50;;;18.00;55.60;;;;;;5055926;28;20106;-61
2021/03/09 09:43:47;;;;;;;22.95;16.38;;;18.00;55.80;;;;;;5055689;28;20039;-62
2021/03/09 09:46:31;;;;;;;27.27;17.85;;;18.00;55.80;;;;;;5055769;28;20104;-62
2021/03/09 09:48:58;;;;;;;23.42;17.50;;;17.90;55.90;;;;;;5056062;28;20029;-61
2021/03/09 09:51:25;;;;;;;23.80;17.13;;;17.90;55.90;;;;;;5055884;28;20028;-61
2021/03/09 09:53:52;;;;;;;26.70;16.75;;;17.90;55.90;;;;;;5055604;28;20036;-61
2021/03/09 09:56:17;;;;;;;23.70;16.23;;;17.90;55.90;;;;;;5055652;28;20033;-61
2021/03/09 09:58:45;;;;;;;21.92;15.77;;;17.80;55.90;;;;;;5055283;28;20371;-62
2021/03/09 10:01:13;;;;;;;27.33;16.17;;;17.80;56.00;;;;;;5054703;28;20484;-62
2021/03/09 10:03:58;;;;;;;20.83;14.80;;;17.80;56.00;;;;;;5055513;28;20044;-62
2021/03/09 10:06:26;;;;;;;23.98;17.63;;;17.80;56.10;;;;;;5055569;28;20029;-61
2021/03/09 10:08:52;;;;;;;23.38;16.50;;;17.90;56.00;;;;;;5055316;28;20040;-61
2021/03/09 10:11:19;;;;;;;22.52;16.88;;;17.90;55.70;;;;;;5055128;28;20074;-61
2021/03/09 10:13:44;;;;;;;21.27;16.02;;;18.00;55.70;;;;;;5054865;28;20116;-61
2021/03/09 10:16:10;;;;;;;21.83;15.85;;;17.90;55.70;;;;;;5055262;28;20104;-61
2021/03/09 10:18:37;;;;;;;27.27;17.05;;;18.00;55.80;;;;;;5055161;28;20025;-61
2021/03/09 10:21:12;;;;;;;26.25;16.67;;;18.00;55.60;;;;;;5055257;28;20112;-61
2021/03/09 10:23:58;;;;;;;22.02;15.60;;;17.90;55.50;;;;;;5054916;28;20384;-61
2021/03/09 10:26:41;;;;;;;24.52;16.27;;;17.90;55.50;;;;;;5055008;28;20041;-61
2021/03/09 10:29:18;;;;;;;20.70;15.88;;;17.90;55.60;;;;;;5055085;28;20064;-61
2021/03/09 10:32:07;;;;;;;21.90;14.68;;;17.80;55.70;;;;;;5055113;28;20025;-61
2021/03/09 10:34:49;;;;;;;18.73;13.75;;;17.80;55.80;;;;;;5054599;28;20045;-61
2021/03/09 10:37:41;;;;;;;21.80;14.90;;;17.80;55.80;;;;;;5054859;28;20468;-61
2021/03/09 10:40:15;;;;;;;21.48;14.60;;;17.70;56.00;;;;;;5054803;28;20487;-61
2021/03/09 10:42:43;;;;;;;18.00;14.32;;;17.60;56.20;;;;;;5054652;28;20025;-61
2021/03/09 10:45:18;;;;;;;20.98;15.77;;;17.60;56.20;;;;;;5055111;28;20071;-62
2021/03/09 10:47:59;;;;;;;20.40;15.40;;;17.60;56.30;;;;;;5054432;28;20028;-62
2021/03/09 10:50:30;;;;;;;22.75;15.52;;;17.60;56.40;;;;;;5054783;28;20067;-61
2021/03/09 10:52:56;;;;;;;19.65;13.88;;;17.50;56.50;;;;;;5054508;28;20143;-62
2021/03/09 10:55:23;;;;;;;27.02;15.05;;;17.50;56.50;;;;;;5054340;28;20037;-61
2021/03/09 10:57:48;;;;;;;18.30;14.98;;;17.50;56.60;;;;;;5054319;28;20465;-61
2021/03/09 11:00:16;;;;;;;17.65;13.88;;;17.50;56.50;;;;;;5054145;28;20100;-62
2021/03/09 11:02:42;;;;;;;21.05;14.90;;;17.50;56.60;;;;;;5054507;28;20366;-61
2021/03/09 11:05:09;;;;;;;21.48;15.30;;;17.50;56.60;;;;;;5054269;28;20025;-61
2021/03/09 11:07:35;;;;;;;17.75;13.88;;;17.40;56.50;;;;;;5054282;28;20117;-61
2021/03/09 11:10:01;;;;;;;19.52;13.65;;;17.50;56.50;;;;;;5054497;28;20114;-61
2021/03/09 11:12:27;;;;;;;21.35;14.75;;;17.50;56.60;;;;;;5054013;28;20033;-61
2021/03/09 11:14:52;;;;;;;21.58;15.20;;;17.50;56.50;;;;;;5054071;28;20029;-61
2021/03/09 11:17:18;;;;;;;23.92;15.10;;;17.50;56.40;;;;;;5054020;28;20060;-61
2021/03/09 11:19:44;;;;;;;21.30;14.55;;;17.60;56.30;;;;;;5054046;28;20032;-62
2021/03/09 11:22:09;;;;;;;20.55;14.55;;;17.60;56.20;;;;;;5052746;28;20060;-62
2021/03/09 11:24:35;;;;;;;17.75;13.93;;;17.60;56.30;;;;;;5054481;28;20024;-61
2021/03/09 11:27:02;;;;;;;21.35;14.23;;;17.60;56.20;;;;;;5053966;28;20485;-61
2021/03/09 11:29:28;;;;;;;18.55;14.45;;;17.60;56.20;;;;;;5053964;28;20052;-61
2021/03/09 11:31:54;;;;;;;16.40;13.98;;;17.60;56.00;;;;;;5053933;28;20031;-61
2021/03/09 11:34:20;;;;;;;19.00;14.20;;;17.50;56.10;;;;;;5053665;28;20029;-61
2021/03/09 11:36:46;;;;;;;17.00;12.98;;;17.50;56.00;;;;;;5053484;28;20472;-61
2021/03/09 11:39:12;;;;;;;18.65;13.68;;;17.50;56.30;;;;;;5053834;28;20024;-62
2021/03/09 11:41:37;;;;;;;19.42;14.48;;;17.40;56.30;;;;;;5054337;28;20060;-61
2021/03/09 11:44:03;;;;;;;19.73;13.30;;;17.40;56.40;;;;;;5053580;28;20040;-61
2021/03/09 11:46:29;;;;;;;18.70;13.95;;;17.40;56.50;;;;;;5053334;28;20078;-61
2021/03/09 11:48:55;;;;;;;22.20;15.73;;;17.30;56.50;;;;;;5053760;28;20102;-61
2021/03/09 11:51:20;;;;;;;21.15;13.32;;;17.30;56.70;;;;;;5053597;28;20084;-61
2021/03/09 11:53:46;;;;;;;18.63;13.05;;;17.30;56.80;;;;;;5053831;28;20025;-61
2021/03/09 11:56:11;;;;;;;19.48;14.23;;;17.30;56.80;;;;;;5053593;28;20086;-61
2021/03/09 11:58:39;;;;;;;18.40;13.63;;;17.20;57.00;;;;;;5053507;28;20473;-61
2021/03/09 12:01:04;;;;;;;19.75;13.45;;;17.20;57.20;;;;;;5053475;28;20025;-61
2021/03/09 12:03:30;;;;;;;18.00;13.60;;;17.20;57.10;;;;;;5053515;28;20380;-61
2021/03/09 12:05:56;;;;;;;18.50;14.35;;;17.20;57.10;;;;;;5053443;28;20036;-61
2021/03/09 12:08:21;;;;;;;21.25;14.15;;;17.20;57.20;;;;;;5053540;28;20469;-61
2021/03/09 12:10:47;;;;;;;21.40;13.88;;;17.10;57.20;;;;;;5053376;28;20094;-61
2021/03/09 12:13:13;;;;;;;17.00;12.88;;;17.10;57.30;;;;;;5053712;28;20059;-61
2021/03/09 12:15:38;;;;;;;18.35;13.30;;;17.10;57.30;;;;;;5053258;28;20448;-61
2021/03/09 12:18:04;;;;;;;17.55;12.45;;;17.10;57.20;;;;;;5053336;28;20029;-61
2021/03/09 12:20:30;;;;;;;15.65;12.15;;;17.20;57.20;;;;;;5053338;28;20071;-61
2021/03/09 12:22:56;;;;;;;21.05;14.30;;;17.20;57.00;;;;;;5053650;28;20040;-61
2021/03/09 12:25:22;;;;;;;18.02;12.77;;;17.30;56.80;;;;;;5056947;28;20480;-60
2021/03/09 12:27:48;;;;;;;17.75;14.35;;;17.30;56.80;;;;;;5057487;28;20026;-60
2021/03/09 12:30:14;;;;;;;19.20;14.25;;;17.30;56.70;;;;;;5057515;28;20354;-59
2021/03/09 12:32:40;;;;;;;26.02;19.88;;;17.40;57.60;;;;;;5057202;28;20065;-58
2021/03/09 12:35:07;;;;;;;122.80;86.47;;;17.40;56.30;;;;;;5057069;28;20115;-56